sensor_id;sensor_type;location;lat;lon;timestamp;pressure;altitude;pressure_sealevel;temperature;humidity
47913;BME280;33676;51.006;17.180;2024-03-23T00:54:50;99473.59;;;10.27;87.84
47913;BME280;33676;51.006;17.180;2024-03-23T00:57:17;99467.47;;;10.27;87.97
47913;BME280;33676;51.006;17.180;2024-03-23T00:59:46;99461.92;;;10.27;88.01
47913;BME280;33676;51.006;17.180;2024-03-23T01:02:13;99460.24;;;10.26;88.15
47913;BME280;33676;51.006;17.180;2024-03-23T01:04:40;99458.29;;;10.25;88.21
47913;BME280;33676;51.006;17.180;2024-03-23T01:07:07;99450.78;;;10.25;88.40
47913;BME280;33676;51.006;17.180;2024-03-23T01:09:34;99447.55;;;10.24;88.50
47913;BME280;33676;51.006;17.180;2024-03-23T01:12:02;99443.95;;;10.23;88.51
47913;BME280;33676;51.006;17.180;2024-03-23T01:14:30;99440.46;;;10.23;88.70
47913;BME280;33676;51.006;17.180;2024-03-23T01:16:57;99439.81;;;10.22;88.78
47913;BME280;33676;51.006;17.180;2024-03-23T01:19:24;99430.67;;;10.23;88.84
47913;BME280;33676;51.006;17.180;2024-03-23T01:21:51;99427.29;;;10.24;89.04
47913;BME280;33676;51.006;17.180;2024-03-23T01:24:18;99420.15;;;10.23;88.96
47913;BME280;33676;51.006;17.180;2024-03-23T01:26:45;99418.80;;;10.25;88.94
47913;BME280;33676;51.006;17.180;2024-03-23T01:29:12;99413.36;;;10.25;89.12
47913;BME280;33676;51.006;17.180;2024-03-23T01:31:40;99410.46;;;10.24;89.07
47913;BME280;33676;51.006;17.180;2024-03-23T01:34:07;99410.80;;;10.25;89.12
47913;BME280;33676;51.006;17.180;2024-03-23T01:36:35;99406.98;;;10.24;89.25
47913;BME280;33676;51.006;17.180;2024-03-23T01:39:02;99405.89;;;10.23;89.32
47913;BME280;33676;51.006;17.180;2024-03-23T01:41:29;99399.63;;;10.22;89.42
47913;BME280;33676;51.006;17.180;2024-03-23T01:43:56;99394.58;;;10.22;89.45
47913;BME280;33676;51.006;17.180;2024-03-23T01:46:24;99389.45;;;10.21;89.60
47913;BME280;33676;51.006;17.180;2024-03-23T01:48:54;99379.98;;;10.22;89.62
47913;BME280;33676;51.006;17.180;2024-03-23T01:51:22;99380.13;;;10.22;89.55
47913;BME280;33676;51.006;17.180;2024-03-23T01:53:50;99375.19;;;10.22;89.65
47913;BME280;33676;51.006;17.180;2024-03-23T01:56:17;99364.71;;;10.22;89.68
47913;BME280;33676;51.006;17.180;2024-03-23T01:58:44;99363.30;;;10.22;89.66
47913;BME280;33676;51.006;17.180;2024-03-23T02:01:14;99356.89;;;10.22;89.64
47913;BME280;33676;51.006;17.180;2024-03-23T02:03:41;99348.20;;;10.21;89.63
47913;BME280;33676;51.006;17.180;2024-03-23T02:06:08;99349.30;;;10.21;89.69
47913;BME280;33676;51.006;17.180;2024-03-23T02:08:36;99350.58;;;10.21;89.73
47913;BME280;33676;51.006;17.180;2024-03-23T02:11:04;99346.30;;;10.19;89.75
47913;BME280;33676;51.006;17.180;2024-03-23T02:13:31;99341.11;;;10.19;89.74
47913;BME280;33676;51.006;17.180;2024-03-23T02:15:58;99333.20;;;10.19;89.75
47913;BME280;33676;51.006;17.180;2024-03-23T02:18:25;99334.59;;;10.19;89.86
47913;BME280;33676;51.006;17.180;2024-03-23T02:20:53;99334.55;;;10.20;89.99
47913;BME280;33676;51.006;17.180;2024-03-23T02:23:20;99332.56;;;10.21;89.93
47913;BME280;33676;51.006;17.180;2024-03-23T02:25:47;99334.48;;;10.21;89.98
47913;BME280;33676;51.006;17.180;2024-03-23T02:28:14;99326.88;;;10.21;90.01
47913;BME280;33676;51.006;17.180;2024-03-23T02:30:41;99326.55;;;10.22;90.09
47913;BME280;33676;51.006;17.180;2024-03-23T02:33:08;99318.63;;;10.22;90.17
47913;BME280;33676;51.006;17.180;2024-03-23T02:35:35;99313.70;;;10.23;90.26
47913;BME280;33676;51.006;17.180;2024-03-23T02:38:02;99306.47;;;10.23;90.14
47913;BME280;33676;51.006;17.180;2024-03-23T02:40:30;99300.79;;;10.24;90.14
47913;BME280;33676;51.006;17.180;2024-03-23T02:42:57;99305.86;;;10.26;90.22
47913;BME280;33676;51.006;17.180;2024-03-23T02:45:24;99300.15;;;10.26;90.20
47913;BME280;33676;51.006;17.180;2024-03-23T02:47:51;99294.61;;;10.25;90.13
47913;BME280;33676;51.006;17.180;2024-03-23T02:50:19;99291.88;;;10.24;90.27
47913;BME280;33676;51.006;17.180;2024-03-23T02:52:48;99288.43;;;10.22;90.28
47913;BME280;33676;51.006;17.180;2024-03-23T02:55:15;99286.78;;;10.21;90.43
47913;BME280;33676;51.006;17.180;2024-03-23T02:57:42;99282.48;;;10.20;90.38
47913;BME280;33676;51.006;17.180;2024-03-23T03:00:10;99277.27;;;10.20;90.52
47913;BME280;33676;51.006;17.180;2024-03-23T03:02:37;99273.77;;;10.20;90.58
47913;BME280;33676;51.006;17.180;2024-03-23T03:05:06;99272.55;;;10.20;90.66
47913;BME280;33676;51.006;17.180;2024-03-23T03:07:33;99260.86;;;10.20;90.67
47913;BME280;33676;51.006;17.180;2024-03-23T03:10:00;99259.41;;;10.20;90.76
47913;BME280;33676;51.006;17.180;2024-03-23T03:12:27;99256.48;;;10.22;90.84
47913;BME280;33676;51.006;17.180;2024-03-23T03:14:54;99252.17;;;10.23;90.95
47913;BME280;33676;51.006;17.180;2024-03-23T03:17:21;99248.70;;;10.25;90.92
47913;BME280;33676;51.006;17.180;2024-03-23T03:19:48;99243.87;;;10.26;90.90
47913;BME280;33676;51.006;17.180;2024-03-23T03:22:15;99243.81;;;10.27;90.83
47913;BME280;33676;51.006;17.180;2024-03-23T03:24:42;99250.30;;;10.26;90.93
47913;BME280;33676;51.006;17.180;2024-03-23T03:27:10;99250.71;;;10.26;90.98
47913;BME280;33676;51.006;17.180;2024-03-23T03:29:37;99249.96;;;10.24;91.07
47913;BME280;33676;51.006;17.180;2024-03-23T03:32:04;99245.23;;;10.22;91.13
47913;BME280;33676;51.006;17.180;2024-03-23T03:34:31;99242.60;;;10.23;91.19
47913;BME280;33676;51.006;17.180;2024-03-23T03:36:58;99238.05;;;10.23;91.21
47913;BME280;33676;51.006;17.180;2024-03-23T03:39:26;99230.77;;;10.24;91.24
47913;BME280;33676;51.006;17.180;2024-03-23T03:41:53;99228.52;;;10.26;91.34
47913;BME280;33676;51.006;17.180;2024-03-23T03:44:20;99219.77;;;10.26;91.25
47913;BME280;33676;51.006;17.180;2024-03-23T03:46:49;99213.25;;;10.26;91.25
47913;BME280;33676;51.006;17.180;2024-03-23T03:49:16;99218.61;;;10.27;91.40
47913;BME280;33676;51.006;17.180;2024-03-23T03:51:48;99212.02;;;10.27;91.46
47913;BME280;33676;51.006;17.180;2024-03-23T03:54:21;99211.48;;;10.27;91.54
47913;BME280;33676;51.006;17.180;2024-03-23T03:56:48;99210.72;;;10.27;91.58
47913;BME280;33676;51.006;17.180;2024-03-23T03:59:17;99201.84;;;10.27;91.54
47913;BME280;33676;51.006;17.180;2024-03-23T04:01:44;99194.46;;;10.27;91.59
47913;BME280;33676;51.006;17.180;2024-03-23T04:04:12;99189.80;;;10.29;91.61
47913;BME280;33676;51.006;17.180;2024-03-23T04:06:39;99187.84;;;10.29;91.46
47913;BME280;33676;51.006;17.180;2024-03-23T04:09:06;99199.04;;;10.29;91.53
47913;BME280;33676;51.006;17.180;2024-03-23T04:11:33;99200.39;;;10.28;91.48
47913;BME280;33676;51.006;17.180;2024-03-23T04:14:01;99198.89;;;10.25;91.50
47913;BME280;33676;51.006;17.180;2024-03-23T04:16:33;99197.27;;;10.24;91.54
47913;BME280;33676;51.006;17.180;2024-03-23T04:19:01;99200.61;;;10.22;91.59
47913;BME280;33676;51.006;17.180;2024-03-23T04:21:28;99205.51;;;10.20;91.60
47913;BME280;33676;51.006;17.180;2024-03-23T04:23:55;99205.70;;;10.17;91.60
47913;BME280;33676;51.006;17.180;2024-03-23T04:26:22;99195.96;;;10.15;91.64
47913;BME280;33676;51.006;17.180;2024-03-23T04:28:49;99191.33;;;10.16;91.79
47913;BME280;33676;51.006;17.180;2024-03-23T04:31:16;99200.13;;;10.17;91.92
47913;BME280;33676;51.006;17.180;2024-03-23T04:33:43;99202.85;;;10.18;91.95
47913;BME280;33676;51.006;17.180;2024-03-23T04:36:11;99199.29;;;10.17;91.77
47913;BME280;33676;51.006;17.180;2024-03-23T04:38:38;99197.31;;;10.13;91.68
47913;BME280;33676;51.006;17.180;2024-03-23T04:41:05;99193.91;;;10.11;91.65
47913;BME280;33676;51.006;17.180;2024-03-23T04:43:33;99196.34;;;10.09;91.54
47913;BME280;33676;51.006;17.180;2024-03-23T04:46:00;99196.57;;;10.07;91.46
47913;BME280;33676;51.006;17.180;2024-03-23T04:48:27;99198.56;;;10.04;91.39
47913;BME280;33676;51.006;17.180;2024-03-23T04:50:55;99195.83;;;10.02;91.31
47913;BME280;33676;51.006;17.180;2024-03-23T04:53:24;99195.64;;;10.00;91.41
47913;BME280;33676;51.006;17.180;2024-03-23T04:55:55;99192.02;;;9.97;91.30
47913;BME280;33676;51.006;17.180;2024-03-23T04:58:23;99185.77;;;9.93;91.33
47913;BME280;33676;51.006;17.180;2024-03-23T05:00:57;99185.38;;;9.88;91.32
47913;BME280;33676;51.006;17.180;2024-03-23T05:03:24;99185.65;;;9.83;91.30
47913;BME280;33676;51.006;17.180;2024-03-23T05:05:51;99182.48;;;9.80;91.31
47913;BME280;33676;51.006;17.180;2024-03-23T05:08:18;99181.84;;;9.78;91.41
47913;BME280;33676;51.006;17.180;2024-03-23T05:10:48;99173.36;;;9.73;91.33
47913;BME280;33676;51.006;17.180;2024-03-23T05:13:15;99172.79;;;9.68;91.24
47913;BME280;33676;51.006;17.180;2024-03-23T05:15:42;99169.20;;;9.67;91.35
47913;BME280;33676;51.006;17.180;2024-03-23T05:18:09;99167.33;;;9.67;91.40
47913;BME280;33676;51.006;17.180;2024-03-23T05:20:37;99164.10;;;9.66;91.18
47913;BME280;33676;51.006;17.180;2024-03-23T05:25:50;99159.73;;;9.66;91.39
47913;BME280;33676;51.006;17.180;2024-03-23T05:28:18;99160.71;;;9.67;91.58
47913;BME280;33676;51.006;17.180;2024-03-23T05:30:55;99160.69;;;9.69;91.90
47913;BME280;33676;51.006;17.180;2024-03-23T05:33:23;99158.13;;;9.72;91.97
47913;BME280;33676;51.006;17.180;2024-03-23T05:36:01;99158.70;;;9.75;92.02
47913;BME280;33676;51.006;17.180;2024-03-23T05:38:28;99154.91;;;9.78;92.11
47913;BME280;33676;51.006;17.180;2024-03-23T05:40:57;99148.42;;;9.82;92.24
47913;BME280;33676;51.006;17.180;2024-03-23T05:43:25;99147.30;;;9.87;92.45
47913;BME280;33676;51.006;17.180;2024-03-23T05:45:56;99146.06;;;9.90;92.51
47913;BME280;33676;51.006;17.180;2024-03-23T05:48:26;99146.48;;;9.93;92.50
47913;BME280;33676;51.006;17.180;2024-03-23T05:50:54;99144.55;;;9.97;92.49
47913;BME280;33676;51.006;17.180;2024-03-23T05:53:21;99139.86;;;10.01;92.64
47913;BME280;33676;51.006;17.180;2024-03-23T05:55:49;99136.04;;;10.04;92.78
47913;BME280;33676;51.006;17.180;2024-03-23T05:58:17;99137.79;;;10.08;92.67
47913;BME280;33676;51.006;17.180;2024-03-23T06:00:45;99134.98;;;10.12;92.79
47913;BME280;33676;51.006;17.180;2024-03-23T06:03:12;99131.22;;;10.16;92.83
47913;BME280;33676;51.006;17.180;2024-03-23T06:05:40;99121.88;;;10.19;92.86
47913;BME280;33676;51.006;17.180;2024-03-23T06:08:07;99111.79;;;10.23;93.10
47913;BME280;33676;51.006;17.180;2024-03-23T06:10:36;99111.09;;;10.28;93.23
47913;BME280;33676;51.006;17.180;2024-03-23T06:13:03;99110.14;;;10.33;93.34
47913;BME280;33676;51.006;17.180;2024-03-23T06:15:30;99107.70;;;10.38;93.41
47913;BME280;33676;51.006;17.180;2024-03-23T06:17:58;99104.73;;;10.43;93.53
47913;BME280;33676;51.006;17.180;2024-03-23T06:20:28;99104.44;;;10.50;93.60
47913;BME280;33676;51.006;17.180;2024-03-23T06:22:58;99108.77;;;10.57;93.74
47913;BME280;33676;51.006;17.180;2024-03-23T06:25:25;99114.36;;;10.65;93.87
47913;BME280;33676;51.006;17.180;2024-03-23T06:27:52;99122.60;;;10.72;93.80
47913;BME280;33676;51.006;17.180;2024-03-23T06:30:19;99133.94;;;10.81;94.08
47913;BME280;33676;51.006;17.180;2024-03-23T06:32:46;99137.70;;;10.92;94.15
47913;BME280;33676;51.006;17.180;2024-03-23T06:35:13;99135.41;;;11.03;94.39
47913;BME280;33676;51.006;17.180;2024-03-23T06:37:40;99130.33;;;11.14;94.58
47913;BME280;33676;51.006;17.180;2024-03-23T06:40:08;99127.84;;;11.23;94.63
47913;BME280;33676;51.006;17.180;2024-03-23T06:42:36;99121.51;;;11.30;94.70
47913;BME280;33676;51.006;17.180;2024-03-23T06:45:05;99115.02;;;11.38;94.68
47913;BME280;33676;51.006;17.180;2024-03-23T06:47:33;99104.11;;;11.45;94.68
47913;BME280;33676;51.006;17.180;2024-03-23T06:50:03;99081.04;;;11.50;94.62
47913;BME280;33676;51.006;17.180;2024-03-23T06:52:30;99067.38;;;11.53;94.52
47913;BME280;33676;51.006;17.180;2024-03-23T06:54:58;99063.41;;;11.58;94.46
47913;BME280;33676;51.006;17.180;2024-03-23T06:57:25;99064.80;;;11.62;94.63
47913;BME280;33676;51.006;17.180;2024-03-23T06:59:52;99062.79;;;11.64;94.49
47913;BME280;33676;51.006;17.180;2024-03-23T07:02:19;99064.23;;;11.67;94.55
47913;BME280;33676;51.006;17.180;2024-03-23T07:04:46;99063.14;;;11.70;94.43
47913;BME280;33676;51.006;17.180;2024-03-23T07:07:13;99058.83;;;11.72;94.59
47913;BME280;33676;51.006;17.180;2024-03-23T07:09:40;99055.67;;;11.76;94.61
47913;BME280;33676;51.006;17.180;2024-03-23T07:12:07;99052.27;;;11.80;94.65
47913;BME280;33676;51.006;17.180;2024-03-23T07:14:34;99046.06;;;11.86;94.84
47913;BME280;33676;51.006;17.180;2024-03-23T07:17:01;99037.00;;;11.92;94.85
47913;BME280;33676;51.006;17.180;2024-03-23T07:19:29;99032.80;;;12.01;95.19
47913;BME280;33676;51.006;17.180;2024-03-23T07:21:56;99024.13;;;12.10;95.21
47913;BME280;33676;51.006;17.180;2024-03-23T07:24:23;99021.36;;;12.19;95.50
47913;BME280;33676;51.006;17.180;2024-03-23T07:26:50;99011.63;;;12.29;95.59
47913;BME280;33676;51.006;17.180;2024-03-23T07:29:18;99003.05;;;12.38;95.80
47913;BME280;33676;51.006;17.180;2024-03-23T07:31:45;99003.00;;;12.50;95.86
47913;BME280;33676;51.006;17.180;2024-03-23T07:34:12;98998.91;;;12.61;95.95
47913;BME280;33676;51.006;17.180;2024-03-23T07:36:42;98993.16;;;12.70;96.12
47913;BME280;33676;51.006;17.180;2024-03-23T07:39:09;98990.30;;;12.82;96.24
47913;BME280;33676;51.006;17.180;2024-03-23T07:41:44;98989.48;;;12.93;96.28
47913;BME280;33676;51.006;17.180;2024-03-23T07:44:11;98980.33;;;13.06;96.41
47913;BME280;33676;51.006;17.180;2024-03-23T07:46:39;98973.33;;;13.19;96.48
47913;BME280;33676;51.006;17.180;2024-03-23T07:49:06;98965.86;;;13.32;96.68
47913;BME280;33676;51.006;17.180;2024-03-23T07:51:33;98964.30;;;13.48;96.84
47913;BME280;33676;51.006;17.180;2024-03-23T07:54:01;98957.88;;;13.63;96.80
47913;BME280;33676;51.006;17.180;2024-03-23T07:56:28;98952.87;;;13.79;96.61
47913;BME280;33676;51.006;17.180;2024-03-23T07:58:55;98948.08;;;13.97;96.51
47913;BME280;33676;51.006;17.180;2024-03-23T08:01:22;98942.83;;;14.10;95.90
47913;BME280;33676;51.006;17.180;2024-03-23T08:03:50;98937.55;;;14.21;95.43
47913;BME280;33676;51.006;17.180;2024-03-23T08:06:19;98929.10;;;14.34;95.11
47913;BME280;33676;51.006;17.180;2024-03-23T08:08:50;98918.22;;;14.47;95.08
47913;BME280;33676;51.006;17.180;2024-03-23T08:11:20;98915.41;;;14.61;94.99
47913;BME280;33676;51.006;17.180;2024-03-23T08:13:47;98906.11;;;14.71;94.72
47913;BME280;33676;51.006;17.180;2024-03-23T08:16:14;98904.48;;;14.80;94.53
47913;BME280;33676;51.006;17.180;2024-03-23T08:18:41;98901.62;;;14.90;94.41
47913;BME280;33676;51.006;17.180;2024-03-23T08:21:08;98900.17;;;14.99;94.02
47913;BME280;33676;51.006;17.180;2024-03-23T08:23:36;98902.95;;;15.06;93.68
47913;BME280;33676;51.006;17.180;2024-03-23T08:26:08;98904.42;;;15.14;93.43
47913;BME280;33676;51.006;17.180;2024-03-23T08:28:35;98894.44;;;15.23;93.37
47913;BME280;33676;51.006;17.180;2024-03-23T08:31:12;98886.87;;;15.35;93.34
47913;BME280;33676;51.006;17.180;2024-03-23T08:33:39;98877.75;;;15.46;93.35
47913;BME280;33676;51.006;17.180;2024-03-23T08:36:09;98868.36;;;15.52;92.94
47913;BME280;33676;51.006;17.180;2024-03-23T08:38:36;98865.39;;;15.57;92.62
47913;BME280;33676;51.006;17.180;2024-03-23T08:41:08;98854.53;;;15.56;92.19
47913;BME280;33676;51.006;17.180;2024-03-23T08:43:38;98855.15;;;15.52;91.70
47913;BME280;33676;51.006;17.180;2024-03-23T08:46:14;98855.90;;;15.50;91.68
47913;BME280;33676;51.006;17.180;2024-03-23T08:48:46;98856.31;;;15.47;91.17
47913;BME280;33676;51.006;17.180;2024-03-23T08:51:16;98850.04;;;15.47;91.20
47913;BME280;33676;51.006;17.180;2024-03-23T08:53:45;98840.15;;;15.48;91.06
47913;BME280;33676;51.006;17.180;2024-03-23T08:56:12;98839.31;;;15.54;91.33
47913;BME280;33676;51.006;17.180;2024-03-23T08:58:39;98831.80;;;15.61;91.64
47913;BME280;33676;51.006;17.180;2024-03-23T09:01:12;98829.92;;;15.65;91.57
47913;BME280;33676;51.006;17.180;2024-03-23T09:03:42;98822.71;;;15.63;91.13
47913;BME280;33676;51.006;17.180;2024-03-23T09:06:14;98824.89;;;15.60;90.85
47913;BME280;33676;51.006;17.180;2024-03-23T09:08:41;98827.46;;;15.54;90.58
47913;BME280;33676;51.006;17.180;2024-03-23T09:11:13;98825.39;;;15.45;90.40
47913;BME280;33676;51.006;17.180;2024-03-23T09:13:40;98815.94;;;15.36;90.24
47913;BME280;33676;51.006;17.180;2024-03-23T09:16:10;98804.34;;;15.27;90.05
47913;BME280;33676;51.006;17.180;2024-03-23T09:18:38;98795.10;;;15.19;89.98
47913;BME280;33676;51.006;17.180;2024-03-23T09:21:12;98794.33;;;15.12;89.99
47913;BME280;33676;51.006;17.180;2024-03-23T09:23:45;98782.83;;;15.07;90.05
47913;BME280;33676;51.006;17.180;2024-03-23T09:26:12;98775.17;;;15.05;90.06
47913;BME280;33676;51.006;17.180;2024-03-23T09:28:40;98766.61;;;15.06;90.15
47913;BME280;33676;51.006;17.180;2024-03-23T09:31:08;98759.38;;;15.10;90.30
47913;BME280;33676;51.006;17.180;2024-03-23T09:33:36;98759.73;;;15.20;90.51
47913;BME280;33676;51.006;17.180;2024-03-23T09:36:04;98754.35;;;15.40;91.07
47913;BME280;33676;51.006;17.180;2024-03-23T09:38:32;98756.19;;;15.64;91.42
47913;BME280;33676;51.006;17.180;2024-03-23T09:40:59;98751.02;;;15.87;91.74
47913;BME280;33676;51.006;17.180;2024-03-23T09:43:27;98750.35;;;16.09;91.99
47913;BME280;33676;51.006;17.180;2024-03-23T09:45:54;98749.23;;;16.26;91.61
47913;BME280;33676;51.006;17.180;2024-03-23T09:48:21;98739.95;;;16.42;91.37
47913;BME280;33676;51.006;17.180;2024-03-23T09:50:48;98728.45;;;16.59;91.29
47913;BME280;33676;51.006;17.180;2024-03-23T09:53:15;98715.85;;;16.79;91.44
47913;BME280;33676;51.006;17.180;2024-03-23T09:55:44;98710.86;;;17.03;91.30
47913;BME280;33676;51.006;17.180;2024-03-23T09:58:18;98698.09;;;17.24;91.29
47913;BME280;33676;51.006;17.180;2024-03-23T10:00:47;98681.95;;;17.45;91.42
47913;BME280;33676;51.006;17.180;2024-03-23T10:03:14;98678.80;;;17.61;91.43
47913;BME280;33676;51.006;17.180;2024-03-23T10:05:41;98663.50;;;17.74;91.27
47913;BME280;33676;51.006;17.180;2024-03-23T10:10:42;98649.58;;;17.97;90.29
47913;BME280;33676;51.006;17.180;2024-03-23T10:13:09;98643.81;;;18.11;90.43
47913;BME280;33676;51.006;17.180;2024-03-23T10:15:37;98635.64;;;18.33;90.47
47913;BME280;33676;51.006;17.180;2024-03-23T10:18:25;98631.60;;;18.46;90.06
47913;BME280;33676;51.006;17.180;2024-03-23T10:23:39;98619.02;;;18.63;88.84
47913;BME280;33676;51.006;17.180;2024-03-23T10:26:24;98616.54;;;18.74;88.32
47913;BME280;33676;51.006;17.180;2024-03-23T10:31:31;98599.05;;;19.46;88.72
47913;BME280;33676;51.006;17.180;2024-03-23T10:33:59;98598.40;;;19.74;89.07
47913;BME280;33676;51.006;17.180;2024-03-23T10:36:28;98593.65;;;20.23;89.15
47913;BME280;33676;51.006;17.180;2024-03-23T10:38:57;98596.91;;;20.80;89.24
47913;BME280;33676;51.006;17.180;2024-03-23T10:41:31;98587.69;;;21.33;89.43
47913;BME280;33676;51.006;17.180;2024-03-23T10:43:59;98587.82;;;21.82;87.91
47913;BME280;33676;51.006;17.180;2024-03-23T10:46:28;98585.23;;;22.12;87.63
47913;BME280;33676;51.006;17.180;2024-03-23T10:48:55;98580.56;;;22.31;87.02
47913;BME280;33676;51.006;17.180;2024-03-23T10:51:22;98579.70;;;22.31;85.44
47913;BME280;33676;51.006;17.180;2024-03-23T10:53:51;98573.80;;;22.30;83.65
47913;BME280;33676;51.006;17.180;2024-03-23T10:56:19;98574.64;;;22.21;81.94
47913;BME280;33676;51.006;17.180;2024-03-23T10:58:48;98570.29;;;22.05;81.25
47913;BME280;33676;51.006;17.180;2024-03-23T11:01:16;98569.27;;;21.80;79.80
47913;BME280;33676;51.006;17.180;2024-03-23T11:03:46;98574.86;;;21.54;79.08
47913;BME280;33676;51.006;17.180;2024-03-23T11:06:38;98570.64;;;21.22;78.28
47913;BME280;33676;51.006;17.180;2024-03-23T11:15:14;98532.83;;;20.52;79.26
47913;BME280;33676;51.006;17.180;2024-03-23T11:17:41;98541.66;;;20.50;78.53
47913;BME280;33676;51.006;17.180;2024-03-23T11:20:11;98542.66;;;20.52;78.20
47913;BME280;33676;51.006;17.180;2024-03-23T11:25:20;98529.09;;;21.29;79.90
47913;BME280;33676;51.006;17.180;2024-03-23T11:27:50;98535.23;;;21.84;79.53
47913;BME280;33676;51.006;17.180;2024-03-23T11:30:26;98535.70;;;21.92;77.70
47913;BME280;33676;51.006;17.180;2024-03-23T11:32:57;98532.80;;;21.72;76.40
47913;BME280;33676;51.006;17.180;2024-03-23T11:35:29;98524.36;;;21.57;75.29
47913;BME280;33676;51.006;17.180;2024-03-23T11:38:15;98517.16;;;21.66;74.67
47913;BME280;33676;51.006;17.180;2024-03-23T11:40:44;98504.63;;;21.59;73.98
47913;BME280;33676;51.006;17.180;2024-03-23T11:43:14;98496.08;;;21.68;74.31
47913;BME280;33676;51.006;17.180;2024-03-23T11:45:48;98490.36;;;21.84;74.12
47913;BME280;33676;51.006;17.180;2024-03-23T11:48:18;98489.19;;;21.80;72.74
47913;BME280;33676;51.006;17.180;2024-03-23T11:50:53;98496.63;;;21.69;71.94
47913;BME280;33676;51.006;17.180;2024-03-23T11:53:22;98505.02;;;21.43;70.98
47913;BME280;33676;51.006;17.180;2024-03-23T11:56:00;98506.73;;;21.05;70.37
47913;BME280;33676;51.006;17.180;2024-03-23T11:58:28;98515.20;;;20.63;69.97
47913;BME280;33676;51.006;17.180;2024-03-23T12:00:59;98529.96;;;20.22;68.77
47913;BME280;33676;51.006;17.180;2024-03-23T12:03:27;98535.33;;;19.80;68.59
47913;BME280;33676;51.006;17.180;2024-03-23T12:06:02;98540.41;;;19.40;68.91
47913;BME280;33676;51.006;17.180;2024-03-23T12:08:34;98548.77;;;19.04;69.01
47913;BME280;33676;51.006;17.180;2024-03-23T12:11:06;98551.39;;;18.74;69.00
47913;BME280;33676;51.006;17.180;2024-03-23T12:13:33;98561.90;;;18.46;69.07
47913;BME280;33676;51.006;17.180;2024-03-23T12:16:16;98568.73;;;18.24;69.80
47913;BME280;33676;51.006;17.180;2024-03-23T12:18:46;98593.52;;;17.99;70.63
47913;BME280;33676;51.006;17.180;2024-03-23T12:21:13;98603.81;;;17.57;71.03
47913;BME280;33676;51.006;17.180;2024-03-23T12:23:40;98609.27;;;17.00;71.66
47913;BME280;33676;51.006;17.180;2024-03-23T12:26:08;98583.64;;;16.47;72.30
47913;BME280;33676;51.006;17.180;2024-03-23T12:28:36;98575.34;;;15.99;73.04
47913;BME280;33676;51.006;17.180;2024-03-23T12:31:04;98563.16;;;15.59;73.66
47913;BME280;33676;51.006;17.180;2024-03-23T12:33:32;98558.52;;;15.26;74.39
47913;BME280;33676;51.006;17.180;2024-03-23T12:36:00;98559.10;;;15.02;74.98
47913;BME280;33676;51.006;17.180;2024-03-23T12:38:27;98545.13;;;14.84;75.26
47913;BME280;33676;51.006;17.180;2024-03-23T12:40:54;98529.27;;;14.73;75.70
47913;BME280;33676;51.006;17.180;2024-03-23T12:43:21;98530.83;;;14.66;76.05
47913;BME280;33676;51.006;17.180;2024-03-23T12:45:49;98525.16;;;14.64;76.30
47913;BME280;33676;51.006;17.180;2024-03-23T12:48:16;98518.43;;;14.65;76.51
47913;BME280;33676;51.006;17.180;2024-03-23T12:50:43;98543.98;;;14.68;76.77
47913;BME280;33676;51.006;17.180;2024-03-23T12:53:10;98541.21;;;14.70;76.90
47913;BME280;33676;51.006;17.180;2024-03-23T12:55:38;98548.77;;;14.70;76.99
47913;BME280;33676;51.006;17.180;2024-03-23T12:58:05;98565.14;;;14.69;77.26
47913;BME280;33676;51.006;17.180;2024-03-23T13:00:32;98574.38;;;14.67;77.43
47913;BME280;33676;51.006;17.180;2024-03-23T13:02:59;98589.73;;;14.65;77.47
47913;BME280;33676;51.006;17.180;2024-03-23T13:05:26;98585.87;;;14.65;77.45
47913;BME280;33676;51.006;17.180;2024-03-23T13:07:53;98584.21;;;14.65;77.44
47913;BME280;33676;51.006;17.180;2024-03-23T13:10:20;98591.71;;;14.65;77.41
47913;BME280;33676;51.006;17.180;2024-03-23T13:12:47;98600.58;;;14.63;77.61
47913;BME280;33676;51.006;17.180;2024-03-23T13:15:14;98610.61;;;14.61;77.71
47913;BME280;33676;51.006;17.180;2024-03-23T13:17:43;98615.83;;;14.58;77.95
47913;BME280;33676;51.006;17.180;2024-03-23T13:20:11;98644.67;;;14.57;78.20
47913;BME280;33676;51.006;17.180;2024-03-23T13:22:41;98696.48;;;14.50;77.32
47913;BME280;33676;51.006;17.180;2024-03-23T13:25:08;98693.30;;;14.26;75.53
47913;BME280;33676;51.006;17.180;2024-03-23T13:27:35;98682.52;;;13.95;75.19
47913;BME280;33676;51.006;17.180;2024-03-23T13:30:03;98680.58;;;13.66;75.61
47913;BME280;33676;51.006;17.180;2024-03-23T13:32:30;98691.13;;;13.41;76.20
47913;BME280;33676;51.006;17.180;2024-03-23T13:34:58;98693.96;;;13.16;77.07
47913;BME280;33676;51.006;17.180;2024-03-23T13:37:25;98695.33;;;12.94;77.43
47913;BME280;33676;51.006;17.180;2024-03-23T13:39:52;98701.96;;;12.78;77.82
47913;BME280;33676;51.006;17.180;2024-03-23T13:42:19;98711.11;;;12.70;78.83
47913;BME280;33676;51.006;17.180;2024-03-23T13:44:46;98714.73;;;12.64;79.21
47913;BME280;33676;51.006;17.180;2024-03-23T13:47:13;98726.57;;;12.58;78.97
47913;BME280;33676;51.006;17.180;2024-03-23T13:49:40;98758.65;;;12.55;78.82
47913;BME280;33676;51.006;17.180;2024-03-23T13:52:08;98755.51;;;12.52;77.84
47913;BME280;33676;51.006;17.180;2024-03-23T13:54:35;98769.90;;;12.45;77.35
47913;BME280;33676;51.006;17.180;2024-03-23T13:57:02;98760.96;;;12.36;77.00
47913;BME280;33676;51.006;17.180;2024-03-23T13:59:29;98781.70;;;12.26;77.13
47913;BME280;33676;51.006;17.180;2024-03-23T14:01:56;98781.39;;;12.21;77.15
47913;BME280;33676;51.006;17.180;2024-03-23T14:04:23;98793.61;;;12.40;77.19
47913;BME280;33676;51.006;17.180;2024-03-23T14:06:52;98805.57;;;12.40;76.64
47913;BME280;33676;51.006;17.180;2024-03-23T14:09:19;98805.25;;;12.23;76.64